Time;durP1;ratioP1;P1;durP2;ratioP2;P2;SDS_P1;SDS_P2;PMS_P1;PMS_P2;Temp;Humidity;BMP_temperature;BMP_pressure;BME280_temperature;BME280_humidity;BME280_pressure;Samples;Min_cycle;Max_cycle;Signal;HPM_P1;HPM_P2
2022/06/16 08:27:12;;;;;;;;;;;15.50;63.30;;;;;;5027936;28;20346;-72
2022/06/16 08:29:39;;;;;;;;;;;15.50;63.50;;;;;;5013001;28;20004;-72
2022/06/16 08:32:05;;;;;;;;;;;15.50;63.30;;;;;;5030350;28;19958;-70
2022/06/16 08:34:32;;;;;;;;;;;15.40;63.50;;;;;;5013087;28;19917;-67
2022/06/16 08:36:59;;;;;;;;;;;15.40;63.40;;;;;;5030448;28;19944;-69
2022/06/16 08:39:25;;;;;;;;;;;15.40;63.30;;;;;;5030671;28;20327;-68
2022/06/16 08:42:12;;;;;;;;;;;15.40;63.30;;;;;;5030989;28;19975;-69
2022/06/16 08:44:58;;;;;;;;;;;15.40;63.30;;;;;;4992107;28;19917;-69
2022/06/16 08:47:31;;;;;;;;;;;15.30;63.30;;;;;;5030783;28;20059;-69
2022/06/16 08:50:06;;;;;;;;;;;15.30;63.30;;;;;;5046337;28;19913;-69
2022/06/16 08:52:42;;;;;;;;;;;15.30;63.50;;;;;;5021672;28;19913;-68
2022/06/16 08:55:09;;;;;;;;;;;15.30;63.60;;;;;;5043830;28;19921;-69
2022/06/16 08:57:38;;;;;;;;;;;15.30;63.60;;;;;;5050530;28;19913;-68
2022/06/16 09:00:06;;;;;;;;;;;15.30;63.60;;;;;;5029467;28;20873;-69
2022/06/16 09:02:35;;;;;;;;;;;15.20;63.90;;;;;;5038039;28;19915;-69
2022/06/16 09:05:12;;;;;;;;;;;15.20;63.90;;;;;;5035826;28;19925;-69
2022/06/16 09:07:57;;;;;;;;;;;15.20;63.80;;;;;;5026617;28;19952;-70
2022/06/16 09:10:27;;;;;;;;;;;15.20;63.90;;;;;;5046286;28;19943;-69
2022/06/16 09:13:04;;;;;;;;;;;15.20;63.90;;;;;;5037918;28;19924;-70
2022/06/16 09:15:36;;;;;;;;;;;15.20;64.10;;;;;;5005059;28;19913;-68
2022/06/16 09:18:21;;;;;;;;;;;15.20;64.30;;;;;;5022957;28;20329;-67
2022/06/16 09:20:48;;;;;;;;;;;15.10;64.30;;;;;;5041927;28;20010;-68
2022/06/16 09:23:17;;;;;;;;;;;15.10;64.20;;;;;;5033364;28;19921;-71
2022/06/16 09:25:50;;;;;;;;;;;15.10;64.40;;;;;;5029555;28;19922;-69
2022/06/16 09:28:16;;;;;;;;;;;15.10;64.70;;;;;;5005357;28;20764;-67
2022/06/16 09:30:43;;;;;;;;;;;15.10;64.70;;;;;;5031387;28;19928;-69
2022/06/16 09:33:12;;;;;;;;;;;15.00;64.70;;;;;;5014131;28;19909;-71
2022/06/16 09:35:58;;;;;;;;;;;15.00;65.00;;;;;;5045774;28;19924;-70
2022/06/16 09:39:03;;;;;;;;;;;15.00;65.10;;;;;;5004245;28;20371;-70
2022/06/16 09:44:24;;;;;;;;;;;15.00;65.00;;;;;;4975929;28;20049;-71
2022/06/16 09:46:53;;;;;;;;;;;14.90;65.00;;;;;;5008473;28;19917;-71
2022/06/16 09:49:31;;;;;;;;;;;14.90;65.00;;;;;;5025552;28;19925;-73
2022/06/16 09:52:04;;;;;;;;;;;14.90;65.00;;;;;;5036800;28;20315;-72
2022/06/16 09:54:35;;;;;;;;;;;14.80;65.00;;;;;;5016189;28;20385;-70
2022/06/16 09:57:03;;;;;;;;;;;14.80;64.90;;;;;;5015846;28;20356;-70
2022/06/16 09:59:44;;;;;;;;;;;14.90;65.30;;;;;;5028025;28;19967;-72
2022/06/16 10:02:16;;;;;;;;;;;14.90;65.20;;;;;;5033271;28;19913;-72
2022/06/16 10:04:43;;;;;;;;;;;14.90;65.20;;;;;;5018955;28;20334;-73
2022/06/16 10:07:15;;;;;;;;;;;14.90;65.30;;;;;;5036753;28;19920;-73
2022/06/16 10:09:48;;;;;;;;;;;14.80;65.50;;;;;;5028874;28;19975;-68
2022/06/16 10:12:14;;;;;;;;;;;14.80;65.60;;;;;;5028220;28;19917;-69
2022/06/16 10:14:51;;;;;;;;;;;14.80;65.90;;;;;;5040769;28;19921;-69
2022/06/16 10:17:20;;;;;;;;;;;14.70;65.90;;;;;;5009351;28;19979;-69
2022/06/16 10:19:47;;;;;;;;;;;14.70;66.30;;;;;;5042605;28;19963;-69
2022/06/16 11:26:00;;;;;;;;;;;14.00;69.40;;;;;;5023947;28;19983;-76
2022/06/16 11:28:27;;;;;;;;;;;14.00;69.60;;;;;;5002652;28;19924;-74
2022/06/16 11:30:55;;;;;;;;;;;14.00;69.80;;;;;;5024717;28;19929;-73
2022/06/16 11:36:32;;;;;;;;;;;13.90;70.90;;;;;;5030088;28;19924;-75
2022/06/16 11:39:17;;;;;;;;;;;13.80;71.20;;;;;;5032258;28;19917;-75
2022/06/16 11:41:46;;;;;;;;;;;13.80;71.20;;;;;;5044763;28;19916;-71
2022/06/16 11:44:22;;;;;;;;;;;13.80;71.20;;;;;;4996456;28;20281;-72
2022/06/16 11:46:48;;;;;;;;;;;13.70;71.20;;;;;;5032600;28;19923;-71
2022/06/16 11:49:33;;;;;;;;;;;13.70;71.00;;;;;;5040775;28;20007;-71
2022/06/16 11:52:03;;;;;;;;;;;13.70;71.10;;;;;;5033826;28;19955;-72
2022/06/16 11:54:44;;;;;;;;;;;13.70;70.80;;;;;;5036402;28;20046;-71
2022/06/16 11:57:11;;;;;;;;;;;13.70;71.20;;;;;;5011806;28;19940;-71
2022/06/16 11:59:51;;;;;;;;;;;13.70;70.90;;;;;;5030750;28;19975;-71
2022/06/16 12:02:36;;;;;;;;;;;13.70;71.20;;;;;;5009020;28;19913;-73
2022/06/16 12:05:08;;;;;;;;;;;13.60;71.40;;;;;;5030095;28;20075;-71
2022/06/16 12:07:53;;;;;;;;;;;13.60;70.90;;;;;;5011405;28;20309;-72
2022/06/16 12:10:29;;;;;;;;;;;13.60;70.60;;;;;;5039387;28;19916;-72
2022/06/16 12:12:58;;;;;;;;;;;13.60;70.30;;;;;;5033879;28;19959;-70
2022/06/16 12:15:31;;;;;;;;;;;13.60;69.90;;;;;;5026472;28;20803;-71
2022/06/16 12:18:07;;;;;;;;;;;13.60;69.90;;;;;;5027117;28;20238;-71
2022/06/16 12:20:57;;;;;;;;;;;13.60;70.20;;;;;;5009862;28;20291;-72
2022/06/16 12:23:30;;;;;;;;;;;13.60;70.00;;;;;;5020442;28;19945;-72
2022/06/16 12:28:36;;;;;;;;;;;13.60;70.30;;;;;;5050767;28;19975;-71
2022/06/16 12:31:09;;;;;;;;;;;13.50;70.30;;;;;;5048285;28;19917;-71
2022/06/16 12:33:38;;;;;;;;;;;13.50;70.30;;;;;;5048293;28;20008;-72
2022/06/16 12:36:12;;;;;;;;;;;13.50;70.20;;;;;;5030384;28;20640;-72
2022/06/16 12:38:45;;;;;;;;;;;13.50;70.20;;;;;;5039559;28;19916;-72
2022/06/16 12:41:38;;;;;;;;;;;13.50;70.30;;;;;;5039152;28;19920;-72
2022/06/16 12:44:13;;;;;;;;;;;13.50;70.60;;;;;;5050666;28;19939;-72
2022/06/16 12:46:45;;;;;;;;;;;13.50;70.50;;;;;;5019713;28;20252;-72
2022/06/16 12:49:41;;;;;;;;;;;13.40;70.30;;;;;;5035457;28;20150;-72
2022/06/16 12:52:13;;;;;;;;;;;13.40;70.30;;;;;;5028874;28;19921;-71
2022/06/16 12:54:41;;;;;;;;;;;13.40;70.20;;;;;;5033480;28;19960;-71
2022/06/16 12:57:09;;;;;;;;;;;13.40;70.30;;;;;;5027851;28;19917;-71
2022/06/16 12:59:46;;;;;;;;;;;13.40;70.40;;;;;;5037183;28;19921;-72
2022/06/16 13:02:23;;;;;;;;;;;13.40;70.30;;;;;;5034529;28;19920;-72
2022/06/16 13:04:49;;;;;;;;;;;13.40;70.30;;;;;;5027519;28;20382;-72
2022/06/16 13:07:20;;;;;;;;;;;13.30;70.20;;;;;;5046749;28;19917;-71
2022/06/16 13:09:47;;;;;;;;;;;13.30;70.10;;;;;;5025876;28;19940;-72
2022/06/16 13:12:17;;;;;;;;;;;13.30;70.20;;;;;;5031461;28;20055;-72
2022/06/16 13:14:52;;;;;;;;;;;13.30;70.20;;;;;;5038162;28;19998;-72
2022/06/16 13:17:19;;;;;;;;;;;13.30;70.20;;;;;;5037833;28;20282;-72
2022/06/16 13:19:47;;;;;;;;;;;13.30;70.20;;;;;;5028306;28;19917;-73
2022/06/16 13:22:39;;;;;;;;;;;13.30;70.00;;;;;;5029565;28;19939;-73
2022/06/16 13:25:26;;;;;;;;;;;13.30;70.10;;;;;;5046755;28;19912;-73
2022/06/16 13:27:53;;;;;;;;;;;13.20;70.10;;;;;;5048162;28;20359;-73
2022/06/16 13:30:21;;;;;;;;;;;13.20;70.30;;;;;;5046104;28;19917;-73
2022/06/16 13:32:48;;;;;;;;;;;13.20;70.30;;;;;;5027243;28;20011;-72
2022/06/16 13:35:14;;;;;;;;;;;13.20;70.40;;;;;;5049244;28;19921;-73
2022/06/16 13:37:47;;;;;;;;;;;13.20;70.50;;;;;;5048276;28;19913;-72
2022/06/16 13:40:24;;;;;;;;;;;13.10;70.80;;;;;;5046171;28;19916;-72
2022/06/16 13:42:56;;;;;;;;;;;13.10;71.00;;;;;;5027244;28;19916;-72
2022/06/16 13:45:29;;;;;;;;;;;13.10;71.30;;;;;;5045595;28;19913;-72
2022/06/16 13:48:16;;;;;;;;;;;13.00;71.60;;;;;;5041062;28;20268;-72
2022/06/16 13:50:49;;;;;;;;;;;13.00;71.70;;;;;;5031449;28;20504;-72
2022/06/16 13:53:19;;;;;;;;;;;13.00;71.80;;;;;;5030910;28;19912;-72
2022/06/16 13:56:05;;;;;;;;;;;13.00;72.00;;;;;;5046481;28;19921;-72
2022/06/16 13:58:36;;;;;;;;;;;12.90;72.30;;;;;;5029549;28;20010;-72
2022/06/16 14:01:04;;;;;;;;;;;12.90;72.80;;;;;;5047945;28;19920;-71
2022/06/16 14:03:31;;;;;;;;;;;12.80;73.30;;;;;;5029059;28;19924;-72
2022/06/16 14:06:02;;;;;;;;;;;12.70;73.80;;;;;;5027877;28;20384;-70
2022/06/16 14:08:29;;;;;;;;;;;12.70;74.20;;;;;;5014239;28;19920;-72
2022/06/16 14:10:57;;;;;;;;;;;12.70;74.30;;;;;;5030329;28;19921;-72
2022/06/16 14:13:37;;;;;;;;;;;12.70;74.30;;;;;;5031878;28;19908;-72
2022/06/16 14:16:04;;;;;;;;;;;12.70;74.30;;;;;;5047844;28;20299;-72
2022/06/16 14:18:51;;;;;;;;;;;12.60;74.20;;;;;;5047065;28;19917;-72
2022/06/16 15:03:23;;;;;;;;;;;12.30;73.30;;;;;;5061551;28;19927;-72
2022/06/16 15:05:49;;;;;;;;;;;12.30;73.00;;;;;;5066393;28;19925;-72
2022/06/16 15:08:20;;;;;;;;;;;12.30;73.00;;;;;;5066565;28;19927;-72
2022/06/16 15:10:46;;;;;;;;;;;12.30;73.10;;;;;;5049601;28;19923;-70
2022/06/16 15:13:13;;;;;;;;;;;12.20;73.40;;;;;;5064428;28;19924;-73
2022/06/16 15:15:39;;;;;;;;;;;12.20;73.70;;;;;;5062776;28;19916;-73
2022/06/16 15:18:13;;;;;;;;;;;12.20;73.60;;;;;;5047408;28;20263;-73
2022/06/16 15:21:08;;;;;;;;;;;12.10;73.70;;;;;;5053312;28;19912;-73
2022/06/16 15:23:35;;;;;;;;;;;12.10;73.90;;;;;;5050023;28;19966;-73
2022/06/16 15:26:02;;;;;;;;;;;12.00;74.10;;;;;;5073722;28;19916;-73
2022/06/16 15:28:32;;;;;;;;;;;12.10;74.30;;;;;;5055257;28;19948;-73
2022/06/16 15:31:09;;;;;;;;;;;12.10;74.40;;;;;;5074285;28;20014;-73
2022/06/16 15:36:46;;;;;;;;;;;12.10;74.00;;;;;;5070296;28;20438;-73
2022/06/16 15:39:16;;;;;;;;;;;12.10;74.00;;;;;;5073873;28;19999;-73
2022/06/16 15:41:43;;;;;;;;;;;12.10;73.80;;;;;;5055762;28;19913;-73
2022/06/16 15:44:23;;;;;;;;;;;12.10;73.60;;;;;;5056099;28;19963;-73
2022/06/16 15:46:50;;;;;;;;;;;12.10;73.60;;;;;;5056356;28;20396;-73
2022/06/16 15:49:22;;;;;;;;;;;12.10;73.60;;;;;;5055971;28;20365;-73
2022/06/16 15:51:48;;;;;;;;;;;12.10;73.60;;;;;;5074038;28;19919;-73
2022/06/16 15:54:15;;;;;;;;;;;12.00;73.50;;;;;;5073420;28;20350;-72
2022/06/16 15:56:41;;;;;;;;;;;12.00;73.60;;;;;;5055377;28;19927;-73
2022/06/16 15:59:09;;;;;;;;;;;12.00;73.70;;;;;;5055637;28;19995;-73
2022/06/16 16:01:36;;;;;;;;;;;11.90;73.70;;;;;;5056098;28;19912;-72
2022/06/16 17:31:03;;;;;;;;;;;11.20;77.50;;;;;;5069567;28;20052;-73
2022/06/16 17:33:30;;;;;;;;;;;11.20;78.00;;;;;;5052358;28;19913;-73
2022/06/16 17:35:56;;;;;;;;;;;11.20;78.20;;;;;;5053781;28;20282;-73
2022/06/16 17:38:23;;;;;;;;;;;11.20;78.00;;;;;;5053788;28;19909;-73
2022/06/16 17:40:50;;;;;;;;;;;11.20;78.10;;;;;;5046401;28;20398;-72
2022/06/16 17:43:16;;;;;;;;;;;11.10;78.30;;;;;;5053913;28;19912;-72
2022/06/16 17:45:43;;;;;;;;;;;11.10;78.60;;;;;;5065593;28;19947;-73
2022/06/16 17:48:10;;;;;;;;;;;11.10;78.70;;;;;;5049394;28;19921;-73
2022/06/16 17:50:37;;;;;;;;;;;11.00;78.70;;;;;;5053818;28;19958;-73
2022/06/16 18:01:18;;;;;;;;;;;11.20;78.80;;;;;;5057016;28;19919;-73
2022/06/16 18:03:44;;;;;;;;;;;11.10;78.90;;;;;;5052664;28;19919;-73
2022/06/16 18:06:11;;;;;;;;;;;11.10;78.90;;;;;;5052681;28;19936;-72
2022/06/16 18:08:42;;;;;;;;;;;11.10;79.20;;;;;;5044473;28;19931;-73
2022/06/16 18:11:10;;;;;;;;;;;11.10;79.30;;;;;;5054232;28;19912;-73
2022/06/16 18:13:40;;;;;;;;;;;11.10;79.20;;;;;;5052606;28;20005;-73
2022/06/16 18:16:14;;;;;;;;;;;11.20;79.20;;;;;;5070803;28;19951;-73
2022/06/16 18:18:43;;;;;;;;;;;11.20;78.90;;;;;;5066941;28;20294;-73
2022/06/16 18:21:14;;;;;;;;;;;11.20;78.80;;;;;;5054238;28;19918;-73
2022/06/16 18:23:40;;;;;;;;;;;11.20;78.70;;;;;;5033494;28;19912;-73
2022/06/16 18:26:07;;;;;;;;;;;11.20;78.60;;;;;;5052509;28;20286;-73
2022/06/16 18:28:33;;;;;;;;;;;11.20;78.70;;;;;;5069976;28;20370;-72
2022/06/16 18:31:00;;;;;;;;;;;11.30;78.30;;;;;;5030738;28;19920;-73
2022/06/16 18:33:26;;;;;;;;;;;11.30;78.30;;;;;;5071812;28;19995;-73
2022/06/16 18:35:53;;;;;;;;;;;11.30;78.10;;;;;;5069809;28;19963;-72
2022/06/16 18:38:19;;;;;;;;;;;11.40;78.10;;;;;;5069002;28;19913;-73
2022/06/16 18:40:46;;;;;;;;;;;11.40;78.00;;;;;;5053509;28;20274;-73
2022/06/16 18:43:19;;;;;;;;;;;11.40;77.90;;;;;;5047288;28;19970;-72
2022/06/16 18:45:47;;;;;;;;;;;11.40;78.00;;;;;;5052464;28;20106;-73
2022/06/16 18:48:13;;;;;;;;;;;11.40;77.70;;;;;;5070978;28;19927;-73
2022/06/16 18:50:40;;;;;;;;;;;11.40;78.00;;;;;;5036042;28;19991;-72
2022/06/16 18:53:18;;;;;;;;;;;11.40;77.90;;;;;;5070602;28;19920;-73
2022/06/16 18:55:48;;;;;;;;;;;11.40;78.00;;;;;;5037860;28;19917;-73
2022/06/16 18:58:15;;;;;;;;;;;11.40;78.00;;;;;;5070773;28;20003;-73
2022/06/16 19:00:50;;;;;;;;;;;11.40;78.00;;;;;;5073288;28;19919;-73
2022/06/16 19:03:17;;;;;;;;;;;11.50;77.80;;;;;;5073954;28;19912;-72
2022/06/16 19:05:45;;;;;;;;;;;11.50;78.00;;;;;;5039839;28;19919;-72
2022/06/16 19:08:12;;;;;;;;;;;11.50;77.70;;;;;;5073450;28;19946;-72
2022/06/16 19:10:39;;;;;;;;;;;11.50;77.70;;;;;;5055672;28;20028;-72
2022/06/16 19:13:05;;;;;;;;;;;11.50;77.60;;;;;;5074115;28;19917;-72
2022/06/16 19:15:33;;;;;;;;;;;11.50;77.50;;;;;;5057003;28;19916;-72
2022/06/16 19:18:02;;;;;;;;;;;11.50;77.60;;;;;;5056223;28;19912;-71
2022/06/16 19:20:29;;;;;;;;;;;11.50;77.60;;;;;;5055595;28;20010;-72
2022/06/16 19:22:57;;;;;;;;;;;11.50;77.80;;;;;;5073750;28;19912;-72
2022/06/16 19:25:23;;;;;;;;;;;11.40;77.70;;;;;;5060612;28;19919;-71
2022/06/16 19:27:52;;;;;;;;;;;11.40;77.60;;;;;;5043519;28;19913;-72
2022/06/16 19:30:19;;;;;;;;;;;11.40;77.80;;;;;;5060444;28;19939;-72
2022/06/16 19:32:46;;;;;;;;;;;11.40;78.00;;;;;;5059766;28;19912;-72
2022/06/16 19:35:12;;;;;;;;;;;11.40;77.80;;;;;;5072113;28;19917;-72
2022/06/16 19:37:39;;;;;;;;;;;11.40;77.90;;;;;;5056086;28;19918;-71
2022/06/16 19:40:06;;;;;;;;;;;11.40;77.80;;;;;;5072996;28;19913;-71
2022/06/16 19:42:32;;;;;;;;;;;11.40;77.80;;;;;;5074171;28;19931;-71
2022/06/16 21:03:59;;;;;;;;;;;11.20;78.60;;;;;;5046164;28;19969;-73
2022/06/16 21:06:26;;;;;;;;;;;11.20;78.50;;;;;;5055506;28;19941;-73
2022/06/16 21:08:53;;;;;;;;;;;11.20;78.80;;;;;;5028554;28;20366;-73
2022/06/16 21:14:04;;;;;;;;;;;11.20;78.90;;;;;;5040935;28;19974;-72
2022/06/16 21:16:31;;;;;;;;;;;11.20;78.80;;;;;;5035033;28;19915;-73
2022/06/16 21:19:00;;;;;;;;;;;11.20;79.00;;;;;;5052829;28;20328;-74
2022/06/16 21:21:27;;;;;;;;;;;11.20;79.20;;;;;;5043629;28;19915;-72
2022/06/16 21:23:53;;;;;;;;;;;11.20;78.80;;;;;;5033179;28;20000;-73
2022/06/16 21:26:20;;;;;;;;;;;11.20;78.80;;;;;;5033672;28;20399;-74
2022/06/16 21:28:47;;;;;;;;;;;11.20;78.70;;;;;;5030799;28;19948;-73
2022/06/16 21:31:13;;;;;;;;;;;11.20;78.60;;;;;;5051948;28;19916;-73
2022/06/16 21:33:41;;;;;;;;;;;11.20;78.50;;;;;;5032484;28;19919;-72
2022/06/16 21:36:14;;;;;;;;;;;11.20;78.60;;;;;;5018511;28;19913;-72
2022/06/16 21:38:41;;;;;;;;;;;11.20;78.80;;;;;;5033149;28;19966;-72
2022/06/16 21:41:08;;;;;;;;;;;11.20;78.90;;;;;;5049575;28;19913;-72
2022/06/16 21:43:34;;;;;;;;;;;11.20;79.10;;;;;;5039078;28;19913;-72
2022/06/16 21:46:01;;;;;;;;;;;11.20;79.00;;;;;;5063263;28;19917;-72
2022/06/16 21:48:29;;;;;;;;;;;11.20;79.00;;;;;;5072323;28;19916;-72
2022/06/16 21:50:57;;;;;;;;;;;11.20;78.80;;;;;;5072375;28;19908;-72
2022/06/16 21:53:25;;;;;;;;;;;11.30;79.20;;;;;;5054273;28;19999;-72
2022/06/16 21:55:52;;;;;;;;;;;11.20;79.30;;;;;;5072380;28;19920;-72
2022/06/16 21:58:21;;;;;;;;;;;11.30;79.20;;;;;;5072003;28;20431;-73
2022/06/16 22:00:49;;;;;;;;;;;11.30;79.10;;;;;;5072312;28;20371;-72
2022/06/16 22:03:15;;;;;;;;;;;11.40;79.30;;;;;;5054382;28;19912;-73
2022/06/16 22:05:42;;;;;;;;;;;11.40;78.90;;;;;;5054230;28;19913;-72
2022/06/16 22:08:09;;;;;;;;;;;11.40;78.70;;;;;;5072134;28;19970;-72
2022/06/16 22:10:36;;;;;;;;;;;11.40;78.60;;;;;;5054208;28;19908;-73
2022/06/16 22:13:08;;;;;;;;;;;11.50;78.40;;;;;;5054487;28;20365;-73
2022/06/16 22:15:47;;;;;;;;;;;11.50;78.40;;;;;;5071627;28;20330;-72
2022/06/16 22:18:19;;;;;;;;;;;11.60;78.30;;;;;;5072016;28;19916;-72
2022/06/16 22:20:46;;;;;;;;;;;11.60;78.10;;;;;;5054249;28;19908;-73
2022/06/16 22:23:28;;;;;;;;;;;11.70;77.90;;;;;;5055001;28;20417;-73
2022/06/16 22:25:56;;;;;;;;;;;11.70;77.90;;;;;;5072027;28;19916;-72
2022/06/16 22:28:32;;;;;;;;;;;11.70;77.70;;;;;;5053942;28;19916;-73
2022/06/16 22:31:14;;;;;;;;;;;11.70;77.50;;;;;;5070892;28;19912;-72
2022/06/16 22:33:41;;;;;;;;;;;11.70;77.30;;;;;;5054289;28;19960;-73
2022/06/16 22:36:08;;;;;;;;;;;11.90;77.30;;;;;;5059819;28;19952;-73
2022/06/16 22:38:35;;;;;;;;;;;11.90;77.20;;;;;;5071754;28;20409;-72
2022/06/16 22:41:01;;;;;;;;;;;11.90;77.30;;;;;;5053871;28;19912;-73
2022/06/16 22:43:28;;;;;;;;;;;11.90;77.30;;;;;;5071883;28;19948;-72
2022/06/16 22:45:56;;;;;;;;;;;12.00;77.00;;;;;;5053882;28;19944;-72
2022/06/16 22:48:33;;;;;;;;;;;12.00;77.20;;;;;;5053932;28;19916;-73
2022/06/16 22:51:00;;;;;;;;;;;12.00;77.40;;;;;;5053575;28;20019;-72
2022/06/16 22:53:27;;;;;;;;;;;12.10;77.40;;;;;;5053720;28;19921;-73
2022/06/16 22:58:38;;;;;;;;;;;12.10;77.20;;;;;;5071826;28;19920;-73
2022/06/16 23:01:05;;;;;;;;;;;12.20;77.30;;;;;;5037153;28;19926;-73
2022/06/16 23:03:32;;;;;;;;;;;12.20;77.00;;;;;;5053939;28;20276;-73
2022/06/16 23:05:58;;;;;;;;;;;12.20;76.90;;;;;;5053877;28;19952;-73
2022/06/16 23:08:30;;;;;;;;;;;12.20;76.80;;;;;;5071532;28;19970;-73
2022/06/16 23:10:57;;;;;;;;;;;12.30;76.60;;;;;;5026919;28;20007;-72
2022/06/16 23:13:24;;;;;;;;;;;12.30;76.60;;;;;;5071988;28;19955;-73
2022/06/16 23:15:51;;;;;;;;;;;12.40;76.60;;;;;;5071834;28;19908;-72
2022/06/16 23:18:18;;;;;;;;;;;12.40;76.50;;;;;;5071601;28;19916;-72
2022/06/16 23:20:45;;;;;;;;;;;12.40;76.60;;;;;;5053698;28;20024;-72
2022/06/16 23:23:18;;;;;;;;;;;12.50;76.80;;;;;;5053655;28;19917;-73
2022/06/16 23:25:45;;;;;;;;;;;12.50;76.80;;;;;;5053709;28;19915;-72
2022/06/16 23:28:12;;;;;;;;;;;12.60;76.90;;;;;;5069330;28;20282;-72
2022/06/16 23:30:39;;;;;;;;;;;12.60;76.70;;;;;;5043560;28;19908;-73
2022/06/16 23:33:05;;;;;;;;;;;12.60;76.80;;;;;;5053834;28;20017;-72
2022/06/16 23:35:32;;;;;;;;;;;12.70;76.20;;;;;;5053595;28;19966;-72
2022/06/16 23:37:59;;;;;;;;;;;12.70;76.10;;;;;;5053469;28;19975;-73
2022/06/16 23:40:25;;;;;;;;;;;12.70;76.20;;;;;;5037049;28;20359;-73
2022/06/16 23:42:54;;;;;;;;;;;12.70;76.20;;;;;;5072496;28;19920;-72
2022/06/16 23:45:20;;;;;;;;;;;12.80;76.10;;;;;;5074582;28;19909;-72
2022/06/16 23:50:35;;;;;;;;;;;12.80;75.40;;;;;;5059551;28;19916;-72
2022/06/16 23:53:01;;;;;;;;;;;12.90;75.40;;;;;;5074838;28;19913;-72
2022/06/16 23:55:28;;;;;;;;;;;13.00;75.10;;;;;;5074944;28;19909;-72
2022/06/16 23:57:55;;;;;;;;;;;13.00;74.90;;;;;;5056931;28;20282;-72
